createdAt,value
2024-01-28T00:00:50.518Z,4.74
2024-01-28T00:03:19.047Z,4.63
2024-01-28T00:05:46.568Z,4.61
2024-01-28T00:08:13.875Z,4.60
2024-01-28T00:10:44.279Z,4.74
2024-01-28T00:13:11.728Z,4.65
2024-01-28T00:15:39.380Z,4.78
2024-01-28T00:18:07.566Z,4.73
2024-01-28T00:20:35.980Z,4.73
2024-01-28T00:23:04.263Z,4.77
2024-01-28T00:25:31.959Z,4.73
2024-01-28T00:27:59.311Z,4.72
2024-01-28T00:30:31.691Z,4.69
2024-01-28T00:32:59.411Z,4.63
2024-01-28T00:35:27.086Z,4.74
2024-01-28T00:37:56.623Z,4.54
2024-01-28T00:40:24.367Z,4.66
2024-01-28T00:42:51.677Z,4.72
2024-01-28T00:45:20.037Z,4.74
2024-01-28T00:47:47.481Z,4.60
2024-01-28T00:50:15.169Z,4.72
2024-01-28T00:52:43.150Z,4.77
2024-01-28T00:55:10.726Z,4.65
2024-01-28T00:57:38.271Z,4.68
2024-01-28T01:00:06.733Z,4.75
2024-01-28T01:02:37.146Z,4.72
2024-01-28T01:05:04.506Z,4.69
2024-01-28T01:07:31.943Z,4.63
2024-01-28T01:09:59.372Z,4.69
2024-01-28T01:12:28.247Z,4.72
2024-01-28T01:14:55.741Z,4.74
2024-01-28T01:17:22.961Z,4.65
2024-01-28T01:19:50.516Z,4.52
2024-01-28T01:22:17.873Z,4.55
2024-01-28T01:24:45.169Z,4.47
2024-01-28T01:27:12.728Z,4.41
2024-01-28T01:29:40.086Z,4.40
2024-01-28T01:32:07.994Z,4.44
2024-01-28T01:34:35.363Z,4.38
2024-01-28T01:37:03.059Z,4.25
2024-01-28T01:39:30.500Z,4.32
2024-01-28T01:47:17.079Z,4.24
2024-01-28T02:03:42.003Z,4.14
2024-01-28T02:06:09.494Z,4.24
2024-01-28T02:08:36.711Z,4.20
2024-01-28T02:11:06.960Z,4.10
2024-01-28T02:13:34.507Z,4.15
2024-01-28T02:16:01.772Z,4.04
2024-01-28T02:18:29.147Z,3.98
2024-01-28T02:20:56.541Z,4.06
2024-01-28T02:23:23.688Z,4.08
2024-01-28T02:25:51.488Z,4.08
2024-01-28T02:28:18.666Z,4.17
2024-01-28T02:30:46.134Z,4.01
2024-01-28T02:33:14.109Z,4.09
2024-01-28T02:35:41.590Z,3.87
2024-01-28T02:38:09.147Z,3.92
2024-01-28T02:40:36.245Z,3.82
2024-01-28T02:43:06.357Z,3.77
2024-01-28T02:45:33.951Z,3.90
2024-01-28T02:48:01.252Z,3.94
2024-01-28T02:50:28.414Z,3.94
2024-01-28T02:52:55.622Z,3.89
2024-01-28T02:55:22.884Z,3.79
2024-01-28T02:57:50.196Z,3.80
2024-01-28T03:00:18.394Z,3.79
2024-01-28T03:02:45.656Z,3.78
2024-01-28T03:05:13.221Z,3.85
2024-01-28T03:07:40.863Z,3.87
2024-01-28T03:10:08.546Z,3.84
2024-01-28T03:12:36.051Z,3.86
2024-01-28T03:15:03.646Z,3.94
2024-01-28T03:17:30.875Z,3.84
2024-01-28T03:19:58.148Z,3.89
2024-01-28T03:22:25.678Z,3.70
2024-01-28T03:24:53.833Z,3.81
2024-01-28T03:27:20.812Z,3.81
2024-01-28T03:29:47.918Z,3.87
2024-01-28T03:32:15.107Z,3.74
2024-01-28T03:34:42.090Z,3.87
2024-01-28T03:37:09.233Z,3.77
2024-01-28T03:39:36.500Z,3.72
2024-01-28T03:42:03.640Z,3.71
2024-01-28T03:44:30.949Z,3.69
2024-01-28T03:46:59.367Z,3.65
2024-01-28T03:49:26.509Z,3.75
2024-01-28T03:51:53.994Z,3.71
2024-01-28T03:54:21.510Z,3.70
2024-01-28T03:56:48.486Z,3.62
2024-01-28T03:59:15.579Z,3.63
2024-01-28T04:15:06.215Z,4.22
2024-01-28T04:17:33.681Z,4.06
2024-01-28T04:20:01.147Z,4.00
2024-01-28T04:22:28.615Z,4.09
2024-01-28T04:24:56.337Z,3.93
2024-01-28T04:27:26.263Z,3.84
2024-01-28T04:30:02.257Z,3.87
2024-01-28T04:32:29.877Z,3.73
2024-01-28T04:34:57.326Z,3.89
2024-01-28T04:37:27.716Z,3.96
2024-01-28T04:39:55.829Z,3.87
2024-01-28T04:42:26.148Z,3.78
2024-01-28T04:44:57.021Z,3.90
2024-01-28T04:47:24.317Z,3.89
2024-01-28T04:49:51.767Z,4.01
2024-01-28T04:52:19.677Z,3.99
2024-01-28T04:54:49.076Z,4.06
2024-01-28T04:57:19.532Z,4.07
2024-01-28T04:59:49.752Z,3.84
2024-01-28T05:02:22.291Z,3.82
2024-01-28T05:07:26.472Z,4.05
2024-01-28T05:09:53.851Z,4.17
2024-01-28T05:12:24.208Z,4.07
2024-01-28T05:14:52.097Z,4.00
2024-01-28T05:17:22.353Z,4.03
2024-01-28T05:19:49.730Z,4.23
2024-01-28T05:22:17.069Z,4.07
2024-01-28T05:24:46.640Z,4.04
2024-01-28T05:27:14.059Z,4.17
2024-01-28T05:29:41.347Z,4.22
2024-01-28T05:32:11.005Z,4.10
2024-01-28T05:34:38.400Z,4.26
2024-01-28T05:37:05.917Z,4.17
2024-01-28T05:39:37.637Z,4.16
2024-01-28T05:42:05.574Z,4.13
2024-01-28T05:47:10.825Z,3.96
2024-01-28T05:49:42.081Z,4.10
2024-01-28T05:52:34.864Z,4.06
2024-01-28T05:55:05.216Z,4.07
2024-01-28T05:57:32.947Z,3.99
2024-01-28T06:00:01.009Z,3.80
2024-01-28T06:05:48.712Z,4.15
2024-01-28T06:08:18.148Z,4.07
2024-01-28T06:10:48.417Z,4.17
2024-01-28T06:13:16.304Z,4.19
2024-01-28T06:16:01.318Z,4.36
2024-01-28T06:18:28.896Z,4.17
2024-01-28T06:21:06.750Z,4.29
2024-01-28T06:26:22.753Z,4.29
2024-01-28T06:31:56.394Z,4.41
2024-01-28T06:48:56.542Z,4.49
2024-01-28T06:51:23.933Z,4.30
2024-01-28T06:56:26.813Z,4.16
2024-01-28T07:12:50.919Z,4.42
2024-01-28T07:15:50.955Z,4.50
2024-01-28T07:18:26.535Z,4.64
2024-01-28T07:20:55.370Z,4.55
2024-01-28T07:23:22.450Z,4.62
2024-01-28T07:25:49.475Z,4.67
2024-01-28T07:28:18.917Z,4.74
2024-01-28T07:30:46.223Z,4.75
2024-01-28T07:33:14.650Z,4.87
2024-01-28T07:35:41.740Z,4.98
2024-01-28T07:38:14.060Z,4.92
2024-01-28T07:40:41.316Z,4.92
2024-01-28T07:43:08.657Z,4.97
2024-01-28T07:45:39.142Z,5.01
2024-01-28T07:48:06.845Z,5.12
2024-01-28T07:50:34.252Z,5.13
2024-01-28T07:53:01.829Z,5.20
2024-01-28T07:55:29.909Z,4.98
2024-01-28T07:57:57.554Z,5.06
2024-01-28T08:00:24.926Z,5.10
2024-01-28T08:02:53.799Z,5.33
2024-01-28T08:05:23.268Z,5.29
2024-01-28T08:07:51.064Z,5.46
2024-01-28T08:10:22.020Z,5.45
2024-01-28T08:12:49.675Z,5.70
2024-01-28T08:15:26.432Z,5.60
2024-01-28T08:17:58.303Z,5.52
2024-01-28T08:23:20.845Z,5.45
2024-01-28T08:37:24.389Z,5.52
2024-01-28T08:48:15.519Z,5.29
2024-01-28T08:53:32.946Z,5.00
2024-01-28T08:56:00.372Z,5.18
2024-01-28T08:58:28.463Z,5.12
2024-01-28T09:00:55.638Z,5.03
2024-01-28T09:03:25.235Z,5.18
2024-01-28T09:05:52.471Z,4.99
2024-01-28T09:08:20.615Z,5.02
2024-01-28T09:10:54.867Z,4.55
2024-01-28T09:16:01.300Z,4.93
2024-01-28T09:18:28.635Z,4.68
2024-01-28T09:20:55.801Z,4.64
2024-01-28T09:23:22.864Z,4.70
2024-01-28T09:25:49.966Z,4.70
2024-01-28T09:28:19.378Z,4.67
2024-01-28T09:30:50.160Z,4.72
2024-01-28T09:33:17.525Z,4.87
2024-01-28T09:35:53.721Z,4.57
2024-01-28T09:38:20.879Z,4.85
2024-01-28T09:40:49.440Z,4.89
2024-01-28T09:43:41.896Z,4.86
2024-01-28T09:46:10.728Z,4.97
2024-01-28T09:48:38.115Z,4.96
2024-01-28T09:51:05.456Z,5.02
2024-01-28T09:53:32.644Z,5.06
2024-01-28T09:56:00.881Z,5.09
2024-01-28T09:58:34.316Z,5.16
2024-01-28T10:01:04.296Z,5.31
2024-01-28T10:34:24.304Z,5.74
2024-01-28T10:37:01.409Z,5.64
2024-01-28T10:39:36.106Z,5.69
2024-01-28T10:42:06.820Z,5.55
2024-01-28T10:44:42.820Z,5.58
2024-01-28T10:47:13.997Z,5.57
2024-01-28T11:09:00.189Z,5.68
2024-01-28T11:11:32.266Z,5.79
2024-01-28T11:14:06.408Z,5.66
2024-01-28T11:16:49.510Z,5.72
2024-01-28T11:19:17.149Z,5.67
2024-01-28T11:30:15.963Z,5.65
2024-01-28T11:35:32.885Z,5.69
2024-01-28T11:38:05.759Z,5.61
2024-01-28T11:48:34.542Z,5.86
2024-01-28T11:51:03.843Z,5.71
2024-01-28T11:53:31.114Z,5.73
2024-01-28T11:56:10.737Z,5.87
2024-01-28T11:58:38.084Z,5.94
2024-01-28T12:04:33.999Z,6.01
2024-01-28T12:07:02.109Z,6.13
2024-01-28T12:09:31.687Z,6.23
2024-01-28T12:11:58.961Z,6.18
2024-01-28T12:14:26.203Z,6.18
2024-01-28T12:16:53.732Z,6.29
2024-01-28T12:19:20.912Z,6.35
2024-01-28T12:21:48.808Z,6.48
2024-01-28T12:24:16.144Z,6.43
2024-01-28T12:26:45.358Z,6.39
2024-01-28T12:29:12.669Z,6.53
2024-01-28T12:31:40.858Z,6.43
2024-01-28T12:34:18.144Z,6.41
2024-01-28T12:36:45.543Z,6.41
2024-01-28T12:39:12.941Z,6.50
2024-01-28T12:41:40.116Z,6.49
2024-01-28T12:44:09.219Z,6.62
2024-01-28T12:46:36.345Z,6.64
2024-01-28T12:49:03.544Z,6.70
2024-01-28T12:51:31.985Z,6.76
2024-01-28T12:53:59.066Z,6.71
2024-01-28T12:56:26.321Z,6.62
2024-01-28T12:58:54.014Z,6.70
2024-01-28T13:01:21.647Z,6.71
2024-01-28T13:03:49.375Z,6.72
2024-01-28T13:06:16.542Z,6.85
2024-01-28T13:08:43.493Z,6.75
2024-01-28T13:11:10.758Z,6.77
2024-01-28T13:13:39.279Z,6.96
2024-01-28T13:16:07.333Z,6.99
2024-01-28T13:18:36.329Z,6.86
2024-01-28T13:21:04.229Z,7.06
2024-01-28T13:23:31.248Z,6.95
2024-01-28T13:25:58.348Z,7.06
2024-01-28T13:28:25.758Z,6.95
2024-01-28T13:30:53.281Z,6.86
2024-01-28T13:33:20.679Z,6.96
2024-01-28T13:35:47.839Z,6.97
2024-01-28T13:38:15.207Z,6.93
2024-01-28T13:40:43.648Z,6.99
2024-01-28T13:43:10.676Z,7.00
2024-01-28T13:45:38.510Z,6.89
2024-01-28T13:48:06.817Z,6.82
2024-01-28T13:50:34.368Z,6.97
2024-01-28T13:53:01.599Z,6.94
2024-01-28T13:55:28.887Z,6.99
2024-01-28T13:57:56.556Z,6.85
2024-01-28T14:00:23.661Z,6.84
2024-01-28T14:02:50.815Z,6.93
2024-01-28T14:05:19.731Z,6.82
2024-01-28T14:07:48.247Z,6.87
2024-01-28T14:10:15.501Z,7.06
2024-01-28T14:12:42.799Z,7.04
2024-01-28T14:15:10.647Z,6.88
2024-01-28T14:17:39.115Z,6.91
2024-01-28T14:20:08.141Z,6.87
2024-01-28T14:22:35.376Z,6.93
2024-01-28T14:25:03.092Z,6.77
2024-01-28T14:30:12.005Z,6.51
2024-01-28T14:32:40.633Z,6.54
2024-01-28T14:35:08.270Z,6.44
2024-01-28T14:37:36.691Z,6.42
2024-01-28T14:40:04.899Z,6.16
2024-01-28T14:42:32.282Z,6.14
2024-01-28T14:44:59.329Z,6.31
2024-01-28T14:47:26.808Z,6.17
2024-01-28T14:49:53.870Z,6.04
2024-01-28T14:52:21.177Z,5.87
2024-01-28T14:54:48.467Z,5.92
2024-01-28T14:57:15.812Z,5.87
2024-01-28T14:59:42.892Z,5.62
2024-01-28T15:04:50.657Z,5.77
2024-01-28T15:07:20.338Z,5.62
2024-01-28T15:09:47.399Z,5.67
2024-01-28T15:12:19.403Z,5.78
2024-01-28T15:14:48.850Z,5.60
2024-01-28T15:17:16.173Z,5.62
2024-01-28T15:19:43.626Z,5.63
2024-01-28T15:22:21.942Z,5.56
2024-01-28T15:24:49.380Z,5.66
2024-01-28T15:27:25.570Z,5.73
2024-01-28T15:29:52.676Z,5.81
2024-01-28T15:32:20.019Z,5.83
2024-01-28T15:34:47.110Z,5.76
2024-01-28T15:37:14.349Z,5.81
2024-01-28T15:39:48.594Z,5.87
2024-01-28T15:42:15.596Z,5.80
2024-01-28T15:44:42.919Z,5.83
2024-01-28T15:47:10.499Z,5.84
2024-01-28T15:49:38.523Z,5.88
2024-01-28T15:52:06.240Z,6.13
2024-01-28T15:54:33.677Z,5.96
2024-01-28T15:57:01.523Z,6.05
2024-01-28T15:59:29.557Z,5.98
2024-01-28T16:01:56.837Z,5.95
2024-01-28T16:04:23.871Z,5.98
2024-01-28T16:06:51.187Z,5.94
2024-01-28T16:09:18.820Z,6.02
2024-01-28T16:11:45.832Z,5.94
2024-01-28T16:14:12.827Z,5.98
2024-01-28T16:16:41.993Z,6.01
2024-01-28T16:19:11.187Z,5.90
2024-01-28T16:24:16.735Z,5.81
2024-01-28T16:26:54.247Z,5.82
2024-01-28T16:37:31.644Z,5.94
2024-01-28T16:47:01.268Z,6.01
2024-01-28T16:52:36.861Z,5.99
2024-01-28T16:55:04.893Z,5.88
2024-01-28T16:57:56.465Z,5.92
2024-01-28T17:56:55.234Z,5.82
2024-01-28T17:59:23.304Z,5.96
2024-01-28T18:01:50.373Z,6.01
2024-01-28T18:04:18.695Z,5.97
2024-01-28T18:06:55.083Z,6.05
2024-01-28T18:09:23.563Z,5.87
2024-01-28T18:11:50.970Z,6.00
2024-01-28T18:14:19.065Z,5.88
2024-01-28T18:16:46.309Z,5.96
2024-01-28T18:19:14.318Z,5.95
2024-01-28T18:21:43.507Z,5.95
2024-01-28T18:24:11.148Z,5.88
2024-01-28T18:26:38.194Z,5.89
2024-01-28T18:29:05.284Z,5.89
2024-01-28T18:31:32.793Z,5.80
2024-01-28T18:34:00.439Z,5.97
2024-01-28T18:36:29.447Z,5.96
2024-01-28T18:38:59.490Z,5.93
2024-01-28T18:41:26.678Z,5.86
2024-01-28T18:44:00.202Z,5.83
2024-01-28T18:46:28.167Z,5.85
2024-01-28T18:48:55.379Z,5.90
2024-01-28T18:51:22.699Z,5.82
2024-01-28T18:53:50.260Z,5.88
2024-01-28T18:56:18.550Z,5.84
2024-01-28T18:58:45.725Z,5.93
2024-01-28T19:01:12.993Z,5.92
2024-01-28T19:03:40.908Z,5.87
2024-01-28T19:06:10.874Z,5.77
2024-01-28T19:08:40.221Z,5.86
2024-01-28T19:11:07.677Z,5.92
2024-01-28T19:13:50.719Z,5.96
2024-01-28T19:16:21.037Z,5.83
2024-01-28T19:21:29.197Z,5.71
2024-01-28T19:23:56.757Z,5.81
2024-01-28T19:26:27.488Z,5.81
2024-01-28T19:28:55.220Z,5.88
2024-01-28T19:31:24.369Z,5.80
2024-01-28T19:33:51.787Z,5.77
2024-01-28T19:36:19.087Z,5.83
2024-01-28T19:38:48.755Z,5.82
2024-01-28T19:41:15.818Z,5.74
2024-01-28T19:43:43.308Z,5.82
2024-01-28T19:46:10.534Z,5.84
2024-01-28T19:48:37.981Z,5.80
2024-01-28T19:51:05.409Z,5.85
2024-01-28T19:53:32.544Z,5.89
2024-01-28T19:55:59.611Z,5.84
2024-01-28T19:58:28.326Z,5.85
2024-01-28T20:05:00.765Z,5.75
2024-01-28T20:07:28.275Z,5.73
2024-01-28T20:10:00.913Z,5.64
2024-01-28T20:12:28.901Z,5.74
2024-01-28T20:14:56.437Z,5.71
2024-01-28T20:17:25.046Z,5.63
2024-01-28T20:19:52.650Z,5.55
2024-01-28T20:22:19.813Z,5.45
2024-01-28T20:24:47.451Z,5.61
2024-01-28T20:27:14.871Z,5.54
2024-01-28T20:29:41.926Z,5.57
2024-01-28T20:32:09.391Z,5.49
2024-01-28T20:34:36.869Z,5.60
2024-01-28T20:37:04.171Z,5.51
2024-01-28T20:39:32.228Z,5.50
2024-01-28T20:42:06.232Z,5.55
2024-01-28T20:44:34.709Z,5.53
2024-01-28T20:47:16.809Z,5.45
2024-01-28T20:49:45.456Z,5.40
2024-01-28T20:52:13.014Z,5.43
2024-01-28T20:54:40.193Z,5.29
2024-01-28T20:57:11.002Z,5.47
2024-01-28T20:59:43.627Z,5.46
2024-01-28T21:02:16.049Z,5.54
2024-01-28T21:04:45.098Z,5.35
2024-01-28T21:07:12.410Z,5.35
2024-01-28T21:09:41.228Z,5.40
2024-01-28T21:12:09.990Z,5.44
2024-01-28T21:14:38.563Z,5.47
2024-01-28T21:17:05.903Z,5.40
2024-01-28T21:19:33.027Z,5.40
2024-01-28T21:22:00.419Z,5.42
2024-01-28T21:24:27.801Z,5.36
2024-01-28T21:26:54.890Z,5.36
2024-01-28T21:29:23.863Z,5.31
2024-01-28T21:31:51.060Z,5.36
2024-01-28T21:34:18.461Z,5.44
2024-01-28T21:36:48.090Z,5.44
2024-01-28T21:39:15.889Z,5.48
2024-01-28T21:41:43.059Z,5.44
2024-01-28T21:44:10.205Z,5.38
2024-01-28T21:46:37.594Z,5.30
2024-01-28T21:49:05.402Z,5.35
2024-01-28T21:51:32.729Z,5.29
2024-01-28T21:54:00.075Z,5.35
2024-01-28T21:56:27.341Z,5.23
2024-01-28T21:58:54.374Z,5.22
2024-01-28T22:01:22.160Z,5.23
2024-01-28T22:03:49.947Z,5.33
2024-01-28T22:06:17.161Z,5.28
2024-01-28T22:08:44.314Z,5.21
2024-01-28T22:11:15.657Z,5.30
2024-01-28T22:13:43.458Z,5.36
2024-01-28T22:16:10.814Z,5.47
2024-01-28T22:18:37.898Z,5.30
2024-01-28T22:21:05.524Z,5.23
2024-01-28T22:23:32.902Z,5.19
2024-01-28T22:26:00.306Z,5.28
2024-01-28T22:28:27.747Z,5.26
2024-01-28T22:30:54.842Z,5.22
2024-01-28T22:33:22.912Z,5.32
2024-01-28T22:35:51.788Z,5.32
2024-01-28T22:38:19.103Z,5.29
2024-01-28T22:40:46.342Z,5.36
2024-01-28T22:43:13.680Z,5.36
2024-01-28T22:45:41.170Z,5.36
2024-01-28T22:48:08.853Z,5.38
2024-01-28T22:50:36.020Z,5.31
2024-01-28T22:53:03.916Z,5.33
2024-01-28T22:55:30.978Z,5.41
2024-01-28T22:57:58.447Z,5.31
2024-01-28T23:00:28.902Z,5.35
2024-01-28T23:02:56.140Z,5.29
2024-01-28T23:05:23.445Z,5.30
2024-01-28T23:07:50.541Z,5.18
2024-01-28T23:10:17.965Z,5.22
2024-01-28T23:12:45.037Z,5.11
2024-01-28T23:15:17.945Z,5.21
2024-01-28T23:17:51.021Z,5.15
2024-01-28T23:20:18.718Z,5.07
2024-01-28T23:22:46.026Z,5.14
2024-01-28T23:25:13.630Z,5.22
2024-01-28T23:27:42.230Z,5.24
2024-01-28T23:30:10.353Z,5.22
2024-01-28T23:32:37.527Z,5.18
2024-01-28T23:35:05.399Z,5.09
2024-01-28T23:37:32.468Z,5.18
2024-01-28T23:40:03.263Z,5.14
2024-01-28T23:42:30.544Z,5.14
2024-01-28T23:44:57.708Z,5.22
2024-01-28T23:47:25.821Z,5.22
2024-01-28T23:49:55.433Z,5.10
2024-01-28T23:52:22.976Z,5.19
2024-01-28T23:54:50.095Z,5.10
2024-01-28T23:57:17.175Z,4.94
2024-01-28T23:59:44.100Z,5.04
